sensor_id;sensor_type;location;lat;lon;timestamp;pressure;altitude;pressure_sealevel;temperature;humidity
51229;BME280;37304;52.216;6.874;2022-11-15T00:03:15;100648.03;;;7.20;100.00
51229;BME280;37304;52.216;6.874;2022-11-15T00:08:15;100649.75;;;7.21;100.00
51229;BME280;37304;52.216;6.874;2022-11-15T00:13:15;100650.63;;;7.19;100.00
51229;BME280;37304;52.216;6.874;2022-11-15T00:18:16;100650.63;;;7.20;100.00
51229;BME280;37304;52.216;6.874;2022-11-15T00:23:17;100651.44;;;7.24;100.00
51229;BME280;37304;52.216;6.874;2022-11-15T00:28:17;100641.09;;;7.28;100.00
51229;BME280;37304;52.216;6.874;2022-11-15T00:33:17;100635.03;;;7.33;100.00
51229;BME280;37304;52.216;6.874;2022-11-15T00:38:18;100639.31;;;7.37;100.00
51229;BME280;37304;52.216;6.874;2022-11-15T00:43:18;100639.31;;;7.37;100.00
51229;BME280;37304;52.216;6.874;2022-11-15T00:48:18;100639.28;;;7.45;100.00
51229;BME280;37304;52.216;6.874;2022-11-15T00:53:19;100634.94;;;7.50;100.00
51229;BME280;37304;52.216;6.874;2022-11-15T00:58:19;100628.84;;;7.52;100.00
51229;BME280;37304;52.216;6.874;2022-11-15T01:03:19;100630.56;;;7.55;100.00
51229;BME280;37304;52.216;6.874;2022-11-15T01:08:20;100619.31;;;7.61;100.00
51229;BME280;37304;52.216;6.874;2022-11-15T01:13:20;100614.16;;;7.64;100.00
51229;BME280;37304;52.216;6.874;2022-11-15T01:18:20;100610.66;;;7.66;100.00
51229;BME280;37304;52.216;6.874;2022-11-15T01:23:21;100601.97;;;7.73;100.00
51229;BME280;37304;52.216;6.874;2022-11-15T01:28:21;100600.16;;;7.82;100.00
51229;BME280;37304;52.216;6.874;2022-11-15T01:33:21;100596.66;;;7.89;100.00
51229;BME280;37304;52.216;6.874;2022-11-15T01:38:22;100593.16;;;7.95;100.00
51229;BME280;37304;52.216;6.874;2022-11-15T01:43:25;100584.50;;;7.99;100.00
51229;BME280;37304;52.216;6.874;2022-11-15T01:48:30;100590.47;;;8.04;100.00
51229;BME280;37304;52.216;6.874;2022-11-15T01:53:32;100584.38;;;8.10;100.00
51229;BME280;37304;52.216;6.874;2022-11-15T01:58:34;100580.88;;;8.14;100.00
51229;BME280;37304;52.216;6.874;2022-11-15T02:04:05;100585.13;;;8.20;100.00
51229;BME280;37304;52.216;6.874;2022-11-15T02:09:02;100579.88;;;8.26;100.00
51229;BME280;37304;52.216;6.874;2022-11-15T02:14:04;100576.34;;;8.35;100.00
51229;BME280;37304;52.216;6.874;2022-11-15T02:24:45;100564.09;;;8.46;100.00
51229;BME280;37304;52.216;6.874;2022-11-15T02:30:27;100562.34;;;8.48;100.00
51229;BME280;37304;52.216;6.874;2022-11-15T02:35:49;100561.47;;;8.52;100.00
51229;BME280;37304;52.216;6.874;2022-11-15T02:40:57;100564.81;;;8.60;100.00
51229;BME280;37304;52.216;6.874;2022-11-15T02:46:11;100548.41;;;8.63;100.00
51229;BME280;37304;52.216;6.874;2022-11-15T02:51:15;100555.19;;;8.70;100.00
51229;BME280;37304;52.216;6.874;2022-11-15T02:56:16;100543.06;;;8.74;100.00
51229;BME280;37304;52.216;6.874;2022-11-15T03:06:41;100541.19;;;8.84;100.00
51229;BME280;37304;52.216;6.874;2022-11-15T03:11:47;100543.69;;;8.92;100.00
51229;BME280;37304;52.216;6.874;2022-11-15T03:17:12;100541.88;;;8.98;100.00
51229;BME280;37304;52.216;6.874;2022-11-15T03:22:21;100533.13;;;9.04;100.00
51229;BME280;37304;52.216;6.874;2022-11-15T03:27:27;100530.47;;;9.09;100.00
51229;BME280;37304;52.216;6.874;2022-11-15T03:32:31;100539.88;;;9.16;100.00
51229;BME280;37304;52.216;6.874;2022-11-15T03:37:40;100530.34;;;9.16;100.00
51229;BME280;37304;52.216;6.874;2022-11-15T03:42:54;100532.84;;;9.23;100.00
51229;BME280;37304;52.216;6.874;2022-11-15T03:48:01;100525.88;;;9.26;100.00
51229;BME280;37304;52.216;6.874;2022-11-15T03:53:03;100525.78;;;9.32;100.00
51229;BME280;37304;52.216;6.874;2022-11-15T03:58:03;100524.78;;;9.40;100.00
51229;BME280;37304;52.216;6.874;2022-11-15T04:03:03;100527.38;;;9.40;100.00
51229;BME280;37304;52.216;6.874;2022-11-15T04:08:04;100525.59;;;9.43;100.00
51229;BME280;37304;52.216;6.874;2022-11-15T04:13:04;100526.38;;;9.49;100.00
51229;BME280;37304;52.216;6.874;2022-11-15T04:18:04;100516.66;;;9.58;100.00
51229;BME280;37304;52.216;6.874;2022-11-15T04:23:05;100526.09;;;9.66;100.00
51229;BME280;37304;52.216;6.874;2022-11-15T04:28:25;100525.09;;;9.73;100.00
51229;BME280;37304;52.216;6.874;2022-11-15T04:33:25;100524.09;;;9.80;100.00
51229;BME280;37304;52.216;6.874;2022-11-15T04:38:26;100523.09;;;9.86;100.00
51229;BME280;37304;52.216;6.874;2022-11-15T04:43:26;100527.31;;;9.91;100.00
51229;BME280;37304;52.216;6.874;2022-11-15T04:48:27;100523.78;;;9.96;100.00
51229;BME280;37304;52.216;6.874;2022-11-15T04:53:27;100522.84;;;10.01;100.00
51229;BME280;37304;52.216;6.874;2022-11-15T04:58:27;100527.78;;;10.12;100.00
51229;BME280;37304;52.216;6.874;2022-11-15T05:03:27;100531.94;;;10.21;100.00
51229;BME280;37304;52.216;6.874;2022-11-15T05:08:46;100530.97;;;10.27;100.00
51229;BME280;37304;52.216;6.874;2022-11-15T05:13:46;100537.00;;;10.29;100.00
51229;BME280;37304;52.216;6.874;2022-11-15T05:18:50;100526.41;;;10.38;100.00
51229;BME280;37304;52.216;6.874;2022-11-15T05:23:50;100526.31;;;10.44;100.00
51229;BME280;37304;52.216;6.874;2022-11-15T05:28:54;100517.56;;;10.48;100.00
51229;BME280;37304;52.216;6.874;2022-11-15T05:33:55;100509.78;;;10.48;100.00
51229;BME280;37304;52.216;6.874;2022-11-15T05:38:56;100506.34;;;10.46;100.00
51229;BME280;37304;52.216;6.874;2022-11-15T05:43:57;100514.09;;;10.48;100.00
51229;BME280;37304;52.216;6.874;2022-11-15T05:48:58;100510.59;;;10.51;100.00
51229;BME280;37304;52.216;6.874;2022-11-15T05:54:00;100515.81;;;10.49;100.00
51229;BME280;37304;52.216;6.874;2022-11-15T05:59:01;100509.78;;;10.48;100.00
51229;BME280;37304;52.216;6.874;2022-11-15T06:04:01;100524.56;;;10.45;100.00
51229;BME280;37304;52.216;6.874;2022-11-15T06:09:02;100534.94;;;10.45;100.00
51229;BME280;37304;52.216;6.874;2022-11-15T06:14:02;100541.03;;;10.45;100.00
51229;BME280;37304;52.216;6.874;2022-11-15T06:19:02;100543.63;;;10.45;100.00
51229;BME280;37304;52.216;6.874;2022-11-15T06:24:03;100547.06;;;10.46;100.00
51229;BME280;37304;52.216;6.874;2022-11-15T06:29:04;100542.78;;;10.43;100.00
51229;BME280;37304;52.216;6.874;2022-11-15T06:34:04;100544.63;;;10.37;100.00
51229;BME280;37304;52.216;6.874;2022-11-15T06:39:05;100542.81;;;10.42;100.00
51229;BME280;37304;52.216;6.874;2022-11-15T06:44:05;100548.94;;;10.38;100.00
51229;BME280;37304;52.216;6.874;2022-11-15T06:49:06;100548.91;;;10.39;100.00
51229;BME280;37304;52.216;6.874;2022-11-15T06:54:06;100549.78;;;10.40;100.00
51229;BME280;37304;52.216;6.874;2022-11-15T06:59:06;100554.13;;;10.38;100.00
51229;BME280;37304;52.216;6.874;2022-11-15T07:04:06;100566.22;;;10.39;100.00
51229;BME280;37304;52.216;6.874;2022-11-15T07:09:07;100571.44;;;10.40;100.00
51229;BME280;37304;52.216;6.874;2022-11-15T07:14:07;100574.09;;;10.35;100.00
51229;BME280;37304;52.216;6.874;2022-11-15T07:19:08;100570.66;;;10.35;100.00
51229;BME280;37304;52.216;6.874;2022-11-15T07:24:08;100574.03;;;10.39;100.00
51229;BME280;37304;52.216;6.874;2022-11-15T07:29:09;100578.34;;;10.41;100.00
51229;BME280;37304;52.216;6.874;2022-11-15T07:34:09;100569.69;;;10.39;100.00
51229;BME280;37304;52.216;6.874;2022-11-15T07:39:10;100574.84;;;10.42;100.00
51229;BME280;37304;52.216;6.874;2022-11-15T07:44:12;100578.34;;;10.41;100.00
51229;BME280;37304;52.216;6.874;2022-11-15T07:49:12;100581.75;;;10.43;100.00
51229;BME280;37304;52.216;6.874;2022-11-15T07:54:12;100579.22;;;10.40;100.00
51229;BME280;37304;52.216;6.874;2022-11-15T07:59:12;100570.50;;;10.44;100.00
51229;BME280;37304;52.216;6.874;2022-11-15T08:04:13;100571.38;;;10.43;100.00
51229;BME280;37304;52.216;6.874;2022-11-15T08:09:13;100579.13;;;10.45;100.00
51229;BME280;37304;52.216;6.874;2022-11-15T08:14:13;100572.91;;;10.52;100.00
51229;BME280;37304;52.216;6.874;2022-11-15T08:19:14;100572.78;;;10.58;100.00
51229;BME280;37304;52.216;6.874;2022-11-15T08:24:14;100565.84;;;10.60;100.00
51229;BME280;37304;52.216;6.874;2022-11-15T08:29:15;100571.03;;;10.60;100.00
51229;BME280;37304;52.216;6.874;2022-11-15T08:34:15;100570.03;;;10.66;100.00
51229;BME280;37304;52.216;6.874;2022-11-15T08:39:17;100568.25;;;10.68;100.00
51229;BME280;37304;52.216;6.874;2022-11-15T08:44:17;100559.44;;;10.75;100.00
51229;BME280;37304;52.216;6.874;2022-11-15T08:49:17;100557.56;;;10.81;100.00
51229;BME280;37304;52.216;6.874;2022-11-15T08:54:18;100561.06;;;10.80;100.00
51229;BME280;37304;52.216;6.874;2022-11-15T08:59:18;100542.78;;;10.84;100.00
51229;BME280;37304;52.216;6.874;2022-11-15T09:04:18;100555.47;;;10.98;100.00
51229;BME280;37304;52.216;6.874;2022-11-15T09:09:19;100548.34;;;11.06;100.00
51229;BME280;37304;52.216;6.874;2022-11-15T09:14:19;100544.84;;;11.07;100.00
51229;BME280;37304;52.216;6.874;2022-11-15T09:19:20;100540.41;;;11.11;100.00
51229;BME280;37304;52.216;6.874;2022-11-15T09:24:20;100534.31;;;11.14;100.00
51229;BME280;37304;52.216;6.874;2022-11-15T09:29:21;100535.00;;;11.20;100.00
51229;BME280;37304;52.216;6.874;2022-11-15T09:34:21;100535.94;;;11.18;100.00
51229;BME280;37304;52.216;6.874;2022-11-15T09:39:21;100532.66;;;11.10;100.00
51229;BME280;37304;52.216;6.874;2022-11-15T09:49:58;100537.59;;;11.20;100.00
51229;BME280;37304;52.216;6.874;2022-11-15T09:54:59;100535.97;;;11.16;100.00
51229;BME280;37304;52.216;6.874;2022-11-15T10:05:12;100523.56;;;11.28;100.00
51229;BME280;37304;52.216;6.874;2022-11-15T10:15:38;100510.78;;;11.18;100.00
51229;BME280;37304;52.216;6.874;2022-11-15T10:21:02;100511.56;;;11.22;100.00
51229;BME280;37304;52.216;6.874;2022-11-15T10:26:10;100501.34;;;11.49;100.00
51229;BME280;37304;52.216;6.874;2022-11-15T10:31:28;100493.34;;;11.57;100.00
51229;BME280;37304;52.216;6.874;2022-11-15T10:36:29;100482.13;;;11.55;100.00
51229;BME280;37304;52.216;6.874;2022-11-15T10:41:36;100476.53;;;11.69;100.00
51229;BME280;37304;52.216;6.874;2022-11-15T10:46:41;100457.09;;;11.82;100.00
51229;BME280;37304;52.216;6.874;2022-11-15T10:57:04;100434.63;;;11.78;100.00
51229;BME280;37304;52.216;6.874;2022-11-15T11:07:30;100420.19;;;11.98;100.00
51229;BME280;37304;52.216;6.874;2022-11-15T11:12:32;100419.44;;;11.94;100.00
51229;BME280;37304;52.216;6.874;2022-11-15T11:18:08;100407.97;;;12.00;100.00
51229;BME280;37304;52.216;6.874;2022-11-15T11:29:14;100404.53;;;11.99;100.00
51229;BME280;37304;52.216;6.874;2022-11-15T11:34:41;100384.44;;;12.04;100.00
51229;BME280;37304;52.216;6.874;2022-11-15T11:50:34;100366.91;;;12.38;100.00
51229;BME280;37304;52.216;6.874;2022-11-15T11:55:46;100370.53;;;12.32;100.00
51229;BME280;37304;52.216;6.874;2022-11-15T12:06:39;100360.00;;;12.37;100.00
51229;BME280;37304;52.216;6.874;2022-11-15T12:11:58;100349.78;;;12.31;100.00
51229;BME280;37304;52.216;6.874;2022-11-15T12:17:01;100346.16;;;12.35;100.00
51229;BME280;37304;52.216;6.874;2022-11-15T12:22:38;100343.34;;;12.41;100.00
51229;BME280;37304;52.216;6.874;2022-11-15T12:27:54;100355.97;;;12.53;100.00
51229;BME280;37304;52.216;6.874;2022-11-15T12:33:00;100348.06;;;12.57;100.00
51229;BME280;37304;52.216;6.874;2022-11-15T12:38:01;100343.78;;;12.54;100.00
51229;BME280;37304;52.216;6.874;2022-11-15T12:58:28;100321.88;;;13.36;100.00
51229;BME280;37304;52.216;6.874;2022-11-15T13:14:50;100268.06;;;17.23;100.00
51229;BME280;37304;52.216;6.874;2022-11-15T13:25:16;100258.22;;;17.10;96.93
51229;BME280;37304;52.216;6.874;2022-11-15T13:30:22;100242.50;;;15.31;100.00
51229;BME280;37304;52.216;6.874;2022-11-15T13:35:25;100235.81;;;14.44;100.00
51229;BME280;37304;52.216;6.874;2022-11-15T13:40:34;100231.56;;;13.78;100.00
51229;BME280;37304;52.216;6.874;2022-11-15T13:45:35;100231.25;;;13.39;100.00
51229;BME280;37304;52.216;6.874;2022-11-15T13:50:38;100218.13;;;12.95;100.00
51229;BME280;37304;52.216;6.874;2022-11-15T13:55:39;100223.06;;;12.77;100.00
51229;BME280;37304;52.216;6.874;2022-11-15T14:00:42;100215.69;;;12.65;100.00
51229;BME280;37304;52.216;6.874;2022-11-15T14:05:44;100213.41;;;12.56;100.00
51229;BME280;37304;52.216;6.874;2022-11-15T14:10:45;100211.19;;;12.45;100.00
51229;BME280;37304;52.216;6.874;2022-11-15T14:15:45;100209.78;;;12.34;100.00
51229;BME280;37304;52.216;6.874;2022-11-15T14:20:45;100207.25;;;12.33;100.00
51229;BME280;37304;52.216;6.874;2022-11-15T14:25:57;100200.00;;;12.16;100.00
51229;BME280;37304;52.216;6.874;2022-11-15T14:30:58;100199.47;;;12.06;100.00
51229;BME280;37304;52.216;6.874;2022-11-15T14:36:15;100188.34;;;12.01;100.00
51229;BME280;37304;52.216;6.874;2022-11-15T14:46:19;100162.81;;;11.84;100.00
51229;BME280;37304;52.216;6.874;2022-11-15T14:51:19;100157.63;;;11.84;100.00
51229;BME280;37304;52.216;6.874;2022-11-15T14:56:20;100153.47;;;11.78;100.00
51229;BME280;37304;52.216;6.874;2022-11-15T15:01:25;100148.69;;;11.65;100.00
51229;BME280;37304;52.216;6.874;2022-11-15T15:06:26;100132.53;;;11.54;100.00
51229;BME280;37304;52.216;6.874;2022-11-15T15:11:28;100130.84;;;11.53;100.00
51229;BME280;37304;52.216;6.874;2022-11-15T15:16:29;100123.31;;;11.44;100.00
51229;BME280;37304;52.216;6.874;2022-11-15T15:21:30;100123.38;;;11.42;100.00
51229;BME280;37304;52.216;6.874;2022-11-15T15:26:33;100113.19;;;11.36;100.00
51229;BME280;37304;52.216;6.874;2022-11-15T15:31:36;100105.59;;;11.28;100.00
51229;BME280;37304;52.216;6.874;2022-11-15T15:36:36;100098.81;;;11.24;100.00
51229;BME280;37304;52.216;6.874;2022-11-15T15:41:37;100090.09;;;11.25;100.00
51229;BME280;37304;52.216;6.874;2022-11-15T15:46:37;100079.00;;;11.20;100.00
51229;BME280;37304;52.216;6.874;2022-11-15T15:51:37;100075.69;;;11.15;100.00
51229;BME280;37304;52.216;6.874;2022-11-15T15:56:38;100074.81;;;11.14;100.00
51229;BME280;37304;52.216;6.874;2022-11-15T16:01:38;100073.03;;;11.16;100.00
51229;BME280;37304;52.216;6.874;2022-11-15T16:06:40;100060.09;;;11.15;100.00
51229;BME280;37304;52.216;6.874;2022-11-15T16:11:45;100048.78;;;11.16;100.00
51229;BME280;37304;52.216;6.874;2022-11-15T16:16:46;100048.81;;;11.14;100.00
51229;BME280;37304;52.216;6.874;2022-11-15T16:21:46;100045.28;;;11.17;100.00
51229;BME280;37304;52.216;6.874;2022-11-15T16:26:47;100041.72;;;11.19;100.00
51229;BME280;37304;52.216;6.874;2022-11-15T16:31:48;100045.13;;;11.21;100.00
51229;BME280;37304;52.216;6.874;2022-11-15T16:36:55;100033.78;;;11.24;100.00
51229;BME280;37304;52.216;6.874;2022-11-15T16:41:59;100029.28;;;11.29;100.00
51229;BME280;37304;52.216;6.874;2022-11-15T16:47:01;100024.75;;;11.34;100.00
51229;BME280;37304;52.216;6.874;2022-11-15T16:52:01;100027.44;;;11.33;100.00
51229;BME280;37304;52.216;6.874;2022-11-15T16:57:01;100010.13;;;11.32;100.00
51229;BME280;37304;52.216;6.874;2022-11-15T17:02:02;100009.16;;;11.34;100.00
51229;BME280;37304;52.216;6.874;2022-11-15T17:07:02;100011.66;;;11.38;100.00
51229;BME280;37304;52.216;6.874;2022-11-15T17:12:02;100004.81;;;11.35;100.00
51229;BME280;37304;52.216;6.874;2022-11-15T17:17:03;99986.63;;;11.35;100.00
51229;BME280;37304;52.216;6.874;2022-11-15T17:22:03;99990.84;;;11.38;100.00
51229;BME280;37304;52.216;6.874;2022-11-15T17:27:04;99984.03;;;11.33;100.00
51229;BME280;37304;52.216;6.874;2022-11-15T17:32:04;99983.34;;;11.28;100.00
51229;BME280;37304;52.216;6.874;2022-11-15T17:37:04;99981.63;;;11.29;100.00
51229;BME280;37304;52.216;6.874;2022-11-15T17:42:05;99988.44;;;11.31;100.00
51229;BME280;37304;52.216;6.874;2022-11-15T17:47:05;99977.25;;;11.29;100.00
51229;BME280;37304;52.216;6.874;2022-11-15T17:52:06;99975.44;;;11.31;100.00
51229;BME280;37304;52.216;6.874;2022-11-15T17:57:07;99964.09;;;11.34;100.00
51229;BME280;37304;52.216;6.874;2022-11-15T18:02:08;99958.00;;;11.35;100.00
51229;BME280;37304;52.216;6.874;2022-11-15T18:07:08;99952.78;;;11.35;100.00
51229;BME280;37304;52.216;6.874;2022-11-15T18:12:10;99929.41;;;11.33;100.00
51229;BME280;37304;52.216;6.874;2022-11-15T18:17:11;99907.56;;;11.39;100.00
51229;BME280;37304;52.216;6.874;2022-11-15T18:22:11;99931.78;;;11.41;100.00
51229;BME280;37304;52.216;6.874;2022-11-15T18:27:11;99950.72;;;11.45;100.00
51229;BME280;37304;52.216;6.874;2022-11-15T18:32:12;99942.00;;;11.46;100.00
51229;BME280;37304;52.216;6.874;2022-11-15T18:37:14;99941.09;;;11.47;100.00
51229;BME280;37304;52.216;6.874;2022-11-15T18:42:14;99945.28;;;11.51;100.00
51229;BME280;37304;52.216;6.874;2022-11-15T18:47:14;99933.03;;;11.55;100.00
51229;BME280;37304;52.216;6.874;2022-11-15T18:52:15;99927.81;;;11.55;100.00
51229;BME280;37304;52.216;6.874;2022-11-15T18:57:15;99912.16;;;11.56;100.00
51229;BME280;37304;52.216;6.874;2022-11-15T19:02:18;99916.44;;;11.57;100.00
51229;BME280;37304;52.216;6.874;2022-11-15T19:07:19;99906.91;;;11.58;100.00
51229;BME280;37304;52.216;6.874;2022-11-15T19:12:19;99899.13;;;11.56;100.00
51229;BME280;37304;52.216;6.874;2022-11-15T19:17:19;99897.28;;;11.60;100.00
51229;BME280;37304;52.216;6.874;2022-11-15T19:22:20;99893.88;;;11.58;100.00
51229;BME280;37304;52.216;6.874;2022-11-15T19:27:20;99893.09;;;11.56;100.00
51229;BME280;37304;52.216;6.874;2022-11-15T19:32:20;99900.91;;;11.56;100.00
51229;BME280;37304;52.216;6.874;2022-11-15T19:37:21;99893.22;;;11.53;100.00
51229;BME280;37304;52.216;6.874;2022-11-15T19:42:21;99893.22;;;11.53;100.00
51229;BME280;37304;52.216;6.874;2022-11-15T19:47:22;99887.03;;;11.55;100.00
51229;BME280;37304;52.216;6.874;2022-11-15T19:52:22;99885.28;;;11.56;100.00
51229;BME280;37304;52.216;6.874;2022-11-15T19:57:23;99878.44;;;11.53;100.00
51229;BME280;37304;52.216;6.874;2022-11-15T20:02:23;99884.41;;;11.55;100.00
51229;BME280;37304;52.216;6.874;2022-11-15T20:07:24;99875.00;;;11.53;100.00
51229;BME280;37304;52.216;6.874;2022-11-15T20:12:24;99870.84;;;11.47;100.00
51229;BME280;37304;52.216;6.874;2022-11-15T20:17:25;99870.06;;;11.45;100.00
51229;BME280;37304;52.216;6.874;2022-11-15T20:22:28;99860.84;;;11.36;100.00
51229;BME280;37304;52.216;6.874;2022-11-15T20:27:29;99850.47;;;11.34;100.00
51229;BME280;37304;52.216;6.874;2022-11-15T20:32:31;99849.91;;;11.26;100.00
51229;BME280;37304;52.216;6.874;2022-11-15T20:37:32;99844.81;;;11.23;100.00
51229;BME280;37304;52.216;6.874;2022-11-15T20:42:34;99848.44;;;11.19;100.00
51229;BME280;37304;52.216;6.874;2022-11-15T20:47:35;99844.25;;;11.15;100.00
51229;BME280;37304;52.216;6.874;2022-11-15T20:52:35;99849.44;;;11.15;100.00
51229;BME280;37304;52.216;6.874;2022-11-15T20:57:36;99839.88;;;11.15;100.00
51229;BME280;37304;52.216;6.874;2022-11-15T21:02:36;99837.38;;;11.12;100.00
51229;BME280;37304;52.216;6.874;2022-11-15T21:07:38;99840.84;;;11.13;100.00
51229;BME280;37304;52.216;6.874;2022-11-15T21:12:38;99835.00;;;11.06;100.00
51229;BME280;37304;52.216;6.874;2022-11-15T21:17:39;99845.50;;;11.03;100.00
51229;BME280;37304;52.216;6.874;2022-11-15T21:22:39;99843.19;;;10.95;100.00
51229;BME280;37304;52.216;6.874;2022-11-15T21:27:39;99844.97;;;10.93;100.00
51229;BME280;37304;52.216;6.874;2022-11-15T21:32:40;99848.66;;;10.87;100.00
51229;BME280;37304;52.216;6.874;2022-11-15T21:37:40;99839.97;;;10.87;100.00
51229;BME280;37304;52.216;6.874;2022-11-15T21:42:40;99837.38;;;10.87;100.00
51229;BME280;37304;52.216;6.874;2022-11-15T21:47:41;99829.75;;;10.82;100.00
51229;BME280;37304;52.216;6.874;2022-11-15T21:52:41;99819.47;;;10.79;100.00
51229;BME280;37304;52.216;6.874;2022-11-15T21:57:41;99817.91;;;10.73;100.00
51229;BME280;37304;52.216;6.874;2022-11-15T22:02:42;99826.59;;;10.72;100.00
51229;BME280;37304;52.216;6.874;2022-11-15T22:07:42;99814.59;;;10.70;100.00
51229;BME280;37304;52.216;6.874;2022-11-15T22:12:43;99812.13;;;10.65;100.00
51229;BME280;37304;52.216;6.874;2022-11-15T22:17:44;99806.25;;;10.60;100.00
51229;BME280;37304;52.216;6.874;2022-11-15T22:22:59;99804.69;;;10.54;100.00
51229;BME280;37304;52.216;6.874;2022-11-15T22:28:00;99797.78;;;10.53;100.00
51229;BME280;37304;52.216;6.874;2022-11-15T22:33:00;99792.75;;;10.48;100.00
51229;BME280;37304;52.216;6.874;2022-11-15T22:38:01;99794.50;;;10.48;100.00
51229;BME280;37304;52.216;6.874;2022-11-15T22:43:02;99787.50;;;10.50;100.00
51229;BME280;37304;52.216;6.874;2022-11-15T22:48:06;99786.66;;;10.49;100.00
51229;BME280;37304;52.216;6.874;2022-11-15T22:53:06;99786.66;;;10.49;100.00
51229;BME280;37304;52.216;6.874;2022-11-15T22:58:07;99783.19;;;10.51;100.00
51229;BME280;37304;52.216;6.874;2022-11-15T23:03:07;99790.16;;;10.48;100.00
51229;BME280;37304;52.216;6.874;2022-11-15T23:08:08;99776.38;;;10.46;100.00
51229;BME280;37304;52.216;6.874;2022-11-15T23:13:11;99774.63;;;10.47;100.00
51229;BME280;37304;52.216;6.874;2022-11-15T23:18:15;99772.00;;;10.48;100.00
51229;BME280;37304;52.216;6.874;2022-11-15T23:23:16;99772.91;;;10.46;100.00
51229;BME280;37304;52.216;6.874;2022-11-15T23:28:16;99774.69;;;10.45;100.00
51229;BME280;37304;52.216;6.874;2022-11-15T23:33:16;99778.19;;;10.44;100.00
51229;BME280;37304;52.216;6.874;2022-11-15T23:38:35;99775.47;;;10.47;100.00
51229;BME280;37304;52.216;6.874;2022-11-15T23:43:36;99785.19;;;10.42;100.00
51229;BME280;37304;52.216;6.874;2022-11-15T23:48:36;99773.78;;;10.46;100.00
51229;BME280;37304;52.216;6.874;2022-11-15T23:53:37;99772.03;;;10.47;100.00
51229;BME280;37304;52.216;6.874;2022-11-15T23:58:37;99765.03;;;10.49;100.00
